createdAt,value
2023-05-01T00:01:00.176Z,7.78
2023-05-01T00:06:07.944Z,7.65
2023-05-01T00:08:35.165Z,7.38
2023-05-01T00:11:09.851Z,8.60
2023-05-01T00:13:37.583Z,9.10
2023-05-01T00:16:12.685Z,5.97
2023-05-01T00:18:40.000Z,7.30
2023-05-01T00:21:07.139Z,6.45
2023-05-01T00:23:34.308Z,7.40
2023-05-01T00:26:01.504Z,7.10
2023-05-01T00:28:29.138Z,8.32
2023-05-01T00:30:57.776Z,6.97
2023-05-01T00:33:24.889Z,6.90
2023-05-01T00:35:52.802Z,6.65
2023-05-01T00:38:19.960Z,6.95
2023-05-01T00:40:47.652Z,6.43
2023-05-01T00:43:14.879Z,6.72
2023-05-01T00:45:46.366Z,8.73
2023-05-01T00:48:14.950Z,6.90
2023-05-01T00:50:44.279Z,6.43
2023-05-01T00:53:12.345Z,7.00
2023-05-01T00:55:42.957Z,7.32
2023-05-01T00:58:14.150Z,6.57
2023-05-01T01:00:41.472Z,8.43
2023-05-01T01:03:08.924Z,6.40
2023-05-01T01:05:53.856Z,6.13
2023-05-01T01:08:34.395Z,6.97
2023-05-01T01:11:21.719Z,5.80
2023-05-01T01:14:32.956Z,6.55
2023-05-01T01:17:38.773Z,6.40
2023-05-01T01:20:32.378Z,6.15
2023-05-01T01:23:48.213Z,6.38
2023-05-01T01:27:20.475Z,6.30
2023-05-01T01:30:23.636Z,5.93
2023-05-01T01:34:24.893Z,6.10
2023-05-01T01:37:18.928Z,6.25
2023-05-01T01:39:55.406Z,7.43
2023-05-01T01:42:31.675Z,6.90
2023-05-01T01:45:30.424Z,7.38
2023-05-01T01:47:58.983Z,8.57
2023-05-01T01:50:28.474Z,6.50
2023-05-01T01:53:00.535Z,8.23
2023-05-01T01:55:31.664Z,7.05
2023-05-01T01:58:00.060Z,8.17
2023-05-01T02:02:59.101Z,6.35
2023-05-01T02:05:27.130Z,7.18
2023-05-01T02:07:56.468Z,7.75
2023-05-01T02:10:24.576Z,7.60
2023-05-01T02:12:53.274Z,6.55
2023-05-01T02:15:22.499Z,8.18
2023-05-01T02:17:52.616Z,7.03
2023-05-01T02:20:22.088Z,7.85
2023-05-01T02:22:52.580Z,7.95
2023-05-01T02:25:19.943Z,7.85
2023-05-01T02:28:02.010Z,7.97
2023-05-01T02:30:29.660Z,7.75
2023-05-01T02:32:57.794Z,9.50
2023-05-01T02:35:25.123Z,8.20
2023-05-01T02:37:52.450Z,7.95
2023-05-01T02:40:19.922Z,8.32
2023-05-01T02:42:49.747Z,9.07
2023-05-01T02:45:23.749Z,8.27
2023-05-01T02:47:56.431Z,10.80
2023-05-01T02:50:25.110Z,9.43
2023-05-01T02:52:52.516Z,8.23
2023-05-01T02:55:31.355Z,8.07
2023-05-01T02:57:59.874Z,8.32
2023-05-01T03:00:27.953Z,7.43
2023-05-01T03:02:55.347Z,8.00
2023-05-01T03:05:22.973Z,8.63
2023-05-01T03:07:51.142Z,9.40
2023-05-01T03:10:18.548Z,8.63
2023-05-01T03:12:45.901Z,9.35
2023-05-01T03:15:13.259Z,8.02
2023-05-01T03:17:40.453Z,8.73
2023-05-01T03:20:10.779Z,11.50
2023-05-01T03:22:37.960Z,11.32
2023-05-01T03:25:05.892Z,10.70
2023-05-01T03:27:33.107Z,10.02
2023-05-01T03:30:00.264Z,10.65
2023-05-01T03:32:29.473Z,11.65
2023-05-01T03:34:57.271Z,12.30
2023-05-01T03:37:25.860Z,11.05
2023-05-01T03:39:53.998Z,10.35
2023-05-01T03:42:40.383Z,13.07
2023-05-01T03:45:14.967Z,13.07
2023-05-01T03:47:42.355Z,11.95
2023-05-01T03:50:10.560Z,11.10
2023-05-01T03:52:40.765Z,12.10
2023-05-01T03:55:08.845Z,12.15
2023-05-01T03:57:40.976Z,10.30
2023-05-01T04:00:10.948Z,12.35
2023-05-01T04:02:45.785Z,12.57
2023-05-01T04:05:18.227Z,12.60
2023-05-01T04:07:51.679Z,13.43
2023-05-01T04:10:18.985Z,13.48
2023-05-01T04:12:55.309Z,13.93
2023-05-01T04:15:22.620Z,14.85
2023-05-01T04:17:50.269Z,15.05
2023-05-01T04:20:19.422Z,15.68
2023-05-01T04:22:47.697Z,15.55
2023-05-01T04:25:14.927Z,15.05
2023-05-01T04:27:42.599Z,14.18
2023-05-01T04:30:10.690Z,15.57
2023-05-01T04:32:38.844Z,15.20
2023-05-01T04:35:07.011Z,14.93
2023-05-01T04:37:35.678Z,14.40
2023-05-01T04:40:04.343Z,14.68
2023-05-01T04:42:34.346Z,16.30
2023-05-01T04:45:04.041Z,15.30
2023-05-01T04:47:34.912Z,17.27
2023-05-01T04:50:02.216Z,17.90
2023-05-01T04:52:30.827Z,17.38
2023-05-01T04:55:00.377Z,16.05
2023-05-01T04:57:30.541Z,17.13
2023-05-01T05:00:00.414Z,17.65
2023-05-01T05:02:27.957Z,19.23
2023-05-01T05:04:56.347Z,16.75
2023-05-01T05:07:23.773Z,17.30
2023-05-01T05:10:09.962Z,18.33
2023-05-01T05:12:37.723Z,16.60
2023-05-01T05:15:06.578Z,16.42
2023-05-01T05:17:33.867Z,19.17
2023-05-01T05:20:01.112Z,16.35
2023-05-01T05:22:28.321Z,15.93
2023-05-01T05:25:31.118Z,14.77
2023-05-01T05:27:59.671Z,17.35
2023-05-01T05:30:27.813Z,17.88
2023-05-01T05:32:55.378Z,18.33
2023-05-01T05:35:26.179Z,17.63
2023-05-01T05:37:54.577Z,17.05
2023-05-01T05:40:21.751Z,16.45
2023-05-01T05:42:57.226Z,17.73
2023-05-01T05:45:26.521Z,17.13
2023-05-01T05:47:53.834Z,20.15
2023-05-01T05:50:21.106Z,20.48
2023-05-01T05:52:48.614Z,19.88
2023-05-01T05:55:15.889Z,18.15
2023-05-01T05:57:52.833Z,19.90
2023-05-01T06:00:20.199Z,20.48
2023-05-01T06:02:50.196Z,18.75
2023-05-01T06:05:19.619Z,19.85
2023-05-01T06:07:47.082Z,19.05
2023-05-01T06:10:14.199Z,17.15
2023-05-01T06:12:41.715Z,17.90
2023-05-01T06:15:16.845Z,16.08
2023-05-01T06:17:49.059Z,20.65
2023-05-01T06:20:16.508Z,18.83
2023-05-01T06:22:43.830Z,17.40
2023-05-01T06:25:29.053Z,16.35
2023-05-01T06:27:56.207Z,18.17
2023-05-01T06:30:24.319Z,18.80
2023-05-01T06:32:51.599Z,18.92
2023-05-01T06:35:20.915Z,20.20
2023-05-01T06:37:48.136Z,18.95
2023-05-01T06:40:15.357Z,19.48
2023-05-01T06:42:43.037Z,18.70
2023-05-01T06:45:10.295Z,15.68
2023-05-01T06:47:37.450Z,18.73
2023-05-01T06:50:05.863Z,15.68
2023-05-01T06:52:33.961Z,15.77
2023-05-01T06:55:01.296Z,15.73
2023-05-01T06:57:28.481Z,15.95
2023-05-01T06:59:56.367Z,16.85
2023-05-01T07:02:23.881Z,14.38
2023-05-01T07:04:51.103Z,15.63
2023-05-01T07:07:18.282Z,16.98
2023-05-01T07:09:45.514Z,15.57
2023-05-01T07:12:12.660Z,16.00
2023-05-01T07:14:41.430Z,15.25
2023-05-01T07:17:09.218Z,17.17
2023-05-01T07:19:36.376Z,19.58
2023-05-01T07:22:04.676Z,17.65
2023-05-01T07:26:59.963Z,18.55
2023-05-01T07:29:27.110Z,15.93
2023-05-01T07:31:54.527Z,19.45
2023-05-01T07:34:21.793Z,18.00
2023-05-01T07:36:49.014Z,17.45
2023-05-01T07:39:17.576Z,15.77
2023-05-01T07:41:44.769Z,16.15
2023-05-01T07:44:11.927Z,16.00
2023-05-01T07:46:39.104Z,19.88
2023-05-01T07:49:06.550Z,18.45
2023-05-01T07:51:33.725Z,19.70
2023-05-01T07:54:04.482Z,16.80
2023-05-01T07:56:31.936Z,18.05
2023-05-01T07:58:59.089Z,17.13
2023-05-01T08:01:26.823Z,17.83
2023-05-01T08:03:54.089Z,16.08
2023-05-01T08:06:21.465Z,15.13
2023-05-01T08:08:48.647Z,16.42
2023-05-01T08:11:16.434Z,17.60
2023-05-01T08:13:43.576Z,16.95
2023-05-01T08:16:10.799Z,20.33
2023-05-01T08:18:38.056Z,15.27
2023-05-01T08:21:05.271Z,18.25
2023-05-01T08:23:32.810Z,17.45
2023-05-01T08:26:00.013Z,17.90
2023-05-01T08:28:27.184Z,20.05
2023-05-01T08:30:54.356Z,18.42
2023-05-01T08:33:21.656Z,30.77
2023-05-01T08:35:49.322Z,18.38
2023-05-01T08:38:16.840Z,16.98
2023-05-01T08:40:53.880Z,18.27
2023-05-01T08:43:21.387Z,17.23
2023-05-01T08:45:49.742Z,19.38
2023-05-01T08:48:20.599Z,15.07
2023-05-01T08:50:48.721Z,16.67
2023-05-01T08:53:19.083Z,15.55
2023-05-01T08:55:47.771Z,17.77
2023-05-01T08:58:17.845Z,18.10
2023-05-01T09:00:46.951Z,15.43
2023-05-01T09:03:14.696Z,18.42
2023-05-01T09:05:42.408Z,19.05
2023-05-01T09:08:09.542Z,17.02
2023-05-01T09:10:46.033Z,16.20
2023-05-01T09:13:13.218Z,19.20
2023-05-01T09:15:40.502Z,18.50
2023-05-01T09:18:09.197Z,19.52
2023-05-01T09:20:37.766Z,18.83
2023-05-01T09:23:05.111Z,20.67
2023-05-01T09:25:32.346Z,18.25
2023-05-01T09:27:59.462Z,17.33
2023-05-01T09:30:38.478Z,27.80
2023-05-01T09:33:14.891Z,20.92
2023-05-01T09:35:57.209Z,18.45
2023-05-01T09:38:27.266Z,19.48
2023-05-01T09:41:06.031Z,17.75
2023-05-01T09:43:33.912Z,17.30
2023-05-01T09:46:10.517Z,17.45
2023-05-01T09:48:38.765Z,17.20
2023-05-01T09:54:00.420Z,17.58
2023-05-01T09:56:31.762Z,16.23
2023-05-01T09:59:20.006Z,20.00
2023-05-01T10:01:50.046Z,17.65
2023-05-01T10:04:18.124Z,17.95
2023-05-01T10:06:45.656Z,18.90
2023-05-01T10:09:29.137Z,18.15
2023-05-01T10:11:57.737Z,22.17
2023-05-01T10:14:26.929Z,19.63
2023-05-01T10:16:56.623Z,21.33
2023-05-01T10:19:23.908Z,25.77
2023-05-01T10:21:51.204Z,19.52
2023-05-01T10:24:18.674Z,21.40
2023-05-01T10:26:50.516Z,22.00
2023-05-01T10:29:21.044Z,21.85
2023-05-01T10:31:48.321Z,22.08
2023-05-01T10:34:20.006Z,22.30
2023-05-01T10:36:57.912Z,19.55
2023-05-01T10:39:34.574Z,21.02
2023-05-01T10:42:13.978Z,22.88
2023-05-01T10:44:42.716Z,20.27
2023-05-01T10:47:27.781Z,21.70
2023-05-01T10:50:15.974Z,20.15
2023-05-01T10:53:16.547Z,22.63
2023-05-01T10:55:46.729Z,23.73
2023-05-01T10:58:38.483Z,21.65
2023-05-01T11:01:29.999Z,22.40
2023-05-01T11:04:09.712Z,19.30
2023-05-01T11:06:40.144Z,23.13
2023-05-01T11:09:57.397Z,22.23
2023-05-01T11:15:27.053Z,23.98
2023-05-01T11:17:55.780Z,25.25
2023-05-01T11:20:25.856Z,22.15
2023-05-01T11:22:55.770Z,25.42
2023-05-01T11:25:27.601Z,22.98
2023-05-01T11:28:03.894Z,23.73
2023-05-01T11:30:41.206Z,23.17
2023-05-01T11:33:10.524Z,25.00
2023-05-01T11:35:38.448Z,24.25
2023-05-01T11:38:05.607Z,25.33
2023-05-01T11:40:36.632Z,25.83
2023-05-01T11:43:09.045Z,24.67
2023-05-01T11:45:38.029Z,24.67
2023-05-01T11:48:14.527Z,24.42
2023-05-01T11:50:41.817Z,23.60
2023-05-01T11:53:18.526Z,24.23
2023-05-01T11:55:45.930Z,25.20
2023-05-01T11:58:13.296Z,37.47
2023-05-01T12:00:43.192Z,25.15
2023-05-01T12:03:14.904Z,27.10
2023-05-01T12:05:45.199Z,23.88
2023-05-01T12:08:20.681Z,27.48
2023-05-01T12:10:57.800Z,25.70
2023-05-01T12:13:26.953Z,25.20
2023-05-01T12:15:56.185Z,25.35
2023-05-01T12:18:23.671Z,21.20
2023-05-01T12:20:54.601Z,26.42
2023-05-01T12:23:37.220Z,23.58
2023-05-01T12:26:23.510Z,20.50
2023-05-01T12:29:04.731Z,24.48
2023-05-01T12:31:32.194Z,22.67
2023-05-01T12:34:07.659Z,21.40
2023-05-01T12:36:37.097Z,21.83
2023-05-01T12:39:09.091Z,21.83
2023-05-01T12:41:46.063Z,19.70
2023-05-01T12:44:26.578Z,23.80
2023-05-01T12:47:12.975Z,22.23
2023-05-01T12:49:41.446Z,22.75
2023-05-01T12:52:09.421Z,20.13
2023-05-01T12:54:40.550Z,21.55
2023-05-01T12:57:14.994Z,21.83
2023-05-01T12:59:47.228Z,19.95
2023-05-01T13:02:17.875Z,20.65
2023-05-01T13:04:48.923Z,17.98
2023-05-01T13:07:19.173Z,21.30
2023-05-01T13:09:59.331Z,18.98
2023-05-01T13:14:56.874Z,16.83
2023-05-01T13:20:03.959Z,17.77
2023-05-01T13:22:40.507Z,16.85
2023-05-01T13:25:22.455Z,15.90
2023-05-01T13:27:54.022Z,15.55
2023-05-01T13:30:33.289Z,18.08
2023-05-01T13:33:01.827Z,17.73
2023-05-01T13:35:29.306Z,16.92
2023-05-01T13:37:56.867Z,19.88
2023-05-01T13:40:26.066Z,18.65
2023-05-01T13:42:54.025Z,20.02
2023-05-01T13:45:21.508Z,17.33
2023-05-01T13:47:51.838Z,19.40
2023-05-01T13:50:19.270Z,17.05
2023-05-01T13:52:46.633Z,17.55
2023-05-01T13:55:14.671Z,19.40
2023-05-01T13:57:43.181Z,20.50
2023-05-01T14:00:19.414Z,18.35
2023-05-01T14:02:49.198Z,17.52
2023-05-01T14:05:30.376Z,22.35
2023-05-01T14:07:58.816Z,20.92
2023-05-01T14:10:29.577Z,18.98
2023-05-01T14:12:58.957Z,19.20
2023-05-01T14:15:28.658Z,19.23
2023-05-01T14:17:55.919Z,20.00
2023-05-01T14:20:25.700Z,22.73
2023-05-01T14:22:53.391Z,21.60
2023-05-01T14:25:37.397Z,23.67
2023-05-01T14:28:08.195Z,23.80
2023-05-01T14:30:38.904Z,19.60
2023-05-01T14:33:11.125Z,21.45
2023-05-01T14:35:52.790Z,22.67
2023-05-01T14:38:25.914Z,22.40
2023-05-01T14:40:53.122Z,26.33
2023-05-01T14:43:23.405Z,21.40
2023-05-01T14:45:50.765Z,25.58
2023-05-01T14:48:26.680Z,21.20
2023-05-01T14:50:59.273Z,24.85
2023-05-01T14:53:31.951Z,21.58
2023-05-01T14:55:59.108Z,21.70
2023-05-01T14:58:26.228Z,24.30
2023-05-01T15:00:53.425Z,24.88
2023-05-01T15:03:20.676Z,25.08
2023-05-01T15:05:47.916Z,21.98
2023-05-01T15:08:15.096Z,28.38
2023-05-01T15:10:43.524Z,27.83
2023-05-01T15:13:10.816Z,27.25
2023-05-01T15:15:38.027Z,26.33
2023-05-01T15:18:05.564Z,23.48
2023-05-01T15:20:34.255Z,24.48
2023-05-01T15:23:01.391Z,26.70
2023-05-01T15:25:29.978Z,28.83
2023-05-01T15:27:57.392Z,27.35
2023-05-01T15:30:25.056Z,26.00
2023-05-01T15:32:52.744Z,28.70
2023-05-01T15:35:21.395Z,26.73
2023-05-01T15:37:50.550Z,28.23
2023-05-01T15:40:18.087Z,27.88
2023-05-01T15:42:47.925Z,28.95
2023-05-01T15:45:15.146Z,25.27
2023-05-01T15:47:42.420Z,29.48
2023-05-01T15:50:11.904Z,29.30
2023-05-01T15:52:39.511Z,26.15
2023-05-01T15:55:07.448Z,23.60
2023-05-01T15:57:35.811Z,27.25
2023-05-01T16:00:04.512Z,24.10
2023-05-01T16:02:32.717Z,27.73
2023-05-01T16:05:00.589Z,25.75
2023-05-01T16:07:29.806Z,25.88
2023-05-01T16:10:00.251Z,26.25
2023-05-01T16:12:28.874Z,26.60
2023-05-01T16:14:56.519Z,31.23
2023-05-01T16:17:23.708Z,27.77
2023-05-01T16:19:52.540Z,26.88
2023-05-01T16:22:21.209Z,27.08
2023-05-01T16:24:48.472Z,29.33
2023-05-01T16:27:18.527Z,31.25
2023-05-01T16:29:45.874Z,30.55
2023-05-01T16:32:14.484Z,30.10
2023-05-01T16:34:43.447Z,28.27
2023-05-01T16:37:15.102Z,28.40
2023-05-01T16:39:42.400Z,30.58
2023-05-01T16:42:13.196Z,31.23
2023-05-01T16:44:40.598Z,34.05
2023-05-01T16:47:12.642Z,34.15
2023-05-01T16:49:44.412Z,30.95
2023-05-01T16:52:14.322Z,29.63
2023-05-01T16:54:41.554Z,29.80
2023-05-01T16:57:08.748Z,34.17
2023-05-01T16:59:37.492Z,36.72
2023-05-01T17:02:05.901Z,31.85
2023-05-01T17:04:33.512Z,29.38
2023-05-01T17:07:00.881Z,32.50
2023-05-01T17:09:28.095Z,30.75
2023-05-01T17:14:24.524Z,36.25
2023-05-01T17:16:53.226Z,38.65
2023-05-01T17:19:20.713Z,32.45
2023-05-01T17:21:47.854Z,35.50
2023-05-01T17:24:15.132Z,33.88
2023-05-01T17:26:42.302Z,42.08
2023-05-01T17:29:09.491Z,40.92
2023-05-01T17:31:36.711Z,36.50
2023-05-01T17:34:03.922Z,33.03
2023-05-01T17:36:32.122Z,36.42
2023-05-01T17:39:01.301Z,36.03
2023-05-01T17:41:28.680Z,41.58
2023-05-01T17:43:55.875Z,36.38
2023-05-01T17:46:23.096Z,39.67
2023-05-01T17:48:50.244Z,41.58
2023-05-01T17:51:18.081Z,39.50
2023-05-01T17:53:45.985Z,43.42
2023-05-01T17:56:13.131Z,39.50
2023-05-01T17:58:40.959Z,42.58
2023-05-01T18:01:08.525Z,41.90
2023-05-01T18:03:35.824Z,45.58
2023-05-01T18:06:04.257Z,43.38
2023-05-01T18:08:31.612Z,42.42
2023-05-01T18:10:58.803Z,40.55
2023-05-01T18:13:28.460Z,40.35
2023-05-01T18:15:56.409Z,40.17
2023-05-01T18:18:24.006Z,49.53
2023-05-01T18:20:51.726Z,43.47
2023-05-01T18:23:19.080Z,39.95
2023-05-01T18:25:46.346Z,41.83
2023-05-01T18:28:16.242Z,44.75
2023-05-01T18:30:43.675Z,41.28
2023-05-01T18:33:11.439Z,41.95
2023-05-01T18:35:42.352Z,37.85
2023-05-01T18:38:12.800Z,36.25
2023-05-01T18:40:40.014Z,36.05
2023-05-01T18:43:07.211Z,43.35
2023-05-01T18:45:34.354Z,40.42
2023-05-01T18:48:01.578Z,40.47
2023-05-01T18:50:28.785Z,36.60
2023-05-01T18:52:55.908Z,38.80
2023-05-01T18:55:23.130Z,40.63
2023-05-01T18:57:50.384Z,41.97
2023-05-01T19:00:18.048Z,45.60
2023-05-01T19:02:51.201Z,38.47
2023-05-01T19:05:18.790Z,32.92
2023-05-01T19:07:46.446Z,35.67
2023-05-01T19:10:14.321Z,33.65
2023-05-01T19:12:42.017Z,36.15
2023-05-01T19:15:10.264Z,32.17
2023-05-01T19:17:37.710Z,36.33
2023-05-01T19:20:06.189Z,36.60
2023-05-01T19:25:00.472Z,32.60
2023-05-01T19:27:27.682Z,34.25
2023-05-01T19:29:54.960Z,34.83
2023-05-01T19:32:23.225Z,41.25
2023-05-01T19:34:50.682Z,37.88
2023-05-01T19:37:17.897Z,41.05
2023-05-01T19:39:45.087Z,40.67
2023-05-01T19:42:12.291Z,40.20
2023-05-01T19:44:40.124Z,56.80
2023-05-01T19:47:07.255Z,59.40
2023-05-01T19:49:34.750Z,53.47
2023-05-01T19:52:01.958Z,50.88
2023-05-01T19:54:29.172Z,52.63
2023-05-01T19:56:57.064Z,50.47
2023-05-01T19:59:24.411Z,44.17
2023-05-01T20:01:51.731Z,48.28
2023-05-01T20:04:19.247Z,47.83
2023-05-01T20:06:46.910Z,46.17
2023-05-01T20:09:14.169Z,55.35
2023-05-01T20:11:41.394Z,53.45
2023-05-01T20:14:08.518Z,45.85
2023-05-01T20:16:36.048Z,44.05
2023-05-01T20:19:03.286Z,44.55
2023-05-01T20:21:31.073Z,47.75
2023-05-01T20:23:58.478Z,41.78
2023-05-01T20:26:25.737Z,39.03
2023-05-01T20:28:53.569Z,41.78
2023-05-01T20:31:21.290Z,39.38
2023-05-01T20:33:48.526Z,44.03
2023-05-01T20:36:17.191Z,48.95
2023-05-01T20:38:45.478Z,52.95
2023-05-01T20:41:12.847Z,55.53
2023-05-01T20:43:40.121Z,54.92
2023-05-01T20:46:07.292Z,47.00
2023-05-01T20:48:34.619Z,58.40
2023-05-01T20:51:01.733Z,54.03
2023-05-01T20:53:28.869Z,65.70
2023-05-01T20:55:56.039Z,63.08
2023-05-01T20:58:23.165Z,66.97
2023-05-01T21:00:53.341Z,69.75
2023-05-01T21:03:20.687Z,73.60
2023-05-01T21:05:48.102Z,76.45
2023-05-01T21:08:15.666Z,78.30
2023-05-01T21:10:42.866Z,92.95
2023-05-01T21:13:10.129Z,73.57
2023-05-01T21:15:43.807Z,87.43
2023-05-01T21:18:14.583Z,87.63
2023-05-01T21:20:45.398Z,100.57
2023-05-01T21:23:17.759Z,100.82
2023-05-01T21:25:44.999Z,123.30
2023-05-01T21:28:13.934Z,124.05
2023-05-01T21:30:41.419Z,131.85
2023-05-01T21:33:14.370Z,134.50
2023-05-01T21:35:44.790Z,137.20
2023-05-01T21:38:12.552Z,134.45
2023-05-01T21:40:46.080Z,129.02
2023-05-01T21:43:13.394Z,150.05
2023-05-01T21:45:44.571Z,124.18
2023-05-01T21:48:16.000Z,140.68
2023-05-01T21:50:43.260Z,148.98
2023-05-01T21:53:10.508Z,159.32
2023-05-01T21:55:38.733Z,141.20
2023-05-01T22:00:33.654Z,150.88
2023-05-01T22:03:05.876Z,148.77
2023-05-01T22:05:34.427Z,152.73
2023-05-01T22:08:01.679Z,145.38
2023-05-01T22:10:29.637Z,147.13
2023-05-01T22:12:56.824Z,177.80
2023-05-01T22:15:24.031Z,169.57
2023-05-01T22:17:51.356Z,177.00
2023-05-01T22:20:18.851Z,180.77
2023-05-01T22:22:45.977Z,189.77
2023-05-01T22:25:13.195Z,196.43
2023-05-01T22:27:40.726Z,202.75
2023-05-01T22:30:08.589Z,197.88
2023-05-01T22:32:35.993Z,233.65
2023-05-01T22:35:03.898Z,259.15
2023-05-01T22:37:31.292Z,262.95
2023-05-01T22:39:58.715Z,227.60
2023-05-01T22:42:26.126Z,258.05
2023-05-01T22:44:53.367Z,259.10
2023-05-01T22:47:20.628Z,239.10
2023-05-01T22:49:47.917Z,252.52
2023-05-01T22:52:15.373Z,250.68
2023-05-01T22:54:42.526Z,256.60
2023-05-01T22:57:10.199Z,268.42
2023-05-01T22:59:39.506Z,279.67
2023-05-01T23:02:06.866Z,280.52
2023-05-01T23:04:34.079Z,283.00
2023-05-01T23:07:01.211Z,289.38
2023-05-01T23:09:32.075Z,292.88
2023-05-01T23:11:59.313Z,284.55
2023-05-01T23:14:26.536Z,276.77
2023-05-01T23:16:56.283Z,285.35
2023-05-01T23:19:25.103Z,284.60
2023-05-01T23:22:12.449Z,269.05
2023-05-01T23:24:49.233Z,276.25
2023-05-01T23:27:19.116Z,273.35
2023-05-01T23:29:58.705Z,275.83
2023-05-01T23:32:30.004Z,256.15
2023-05-01T23:35:23.659Z,275.80
2023-05-01T23:37:52.744Z,241.15
2023-05-01T23:40:20.162Z,252.75
2023-05-01T23:42:48.012Z,248.93
2023-05-01T23:45:16.970Z,236.63
2023-05-01T23:47:44.175Z,221.05
2023-05-01T23:50:11.617Z,196.48
2023-05-01T23:52:38.830Z,182.27
2023-05-01T23:55:06.255Z,174.18
2023-05-01T23:57:33.367Z,159.20
